sensor_id;sensor_type;location;lat;lon;timestamp;pressure;altitude;pressure_sealevel;temperature;humidity
46366;BME280;72328;49.570;8.722;2023-09-30T00:01:13;100470.88;;;23.13;45.61
46366;BME280;72328;49.570;8.722;2023-09-30T00:05:15;100475.44;;;23.11;45.27
46366;BME280;72328;49.570;8.722;2023-09-30T00:09:15;100463.81;;;23.05;45.40
46366;BME280;72328;49.570;8.722;2023-09-30T00:13:16;100471.38;;;23.00;45.31
46366;BME280;72328;49.570;8.722;2023-09-30T00:17:16;100489.41;;;22.95;45.45
46366;BME280;72328;49.570;8.722;2023-09-30T00:21:17;100489.09;;;22.90;45.36
46366;BME280;72328;49.570;8.722;2023-09-30T00:25:18;100496.78;;;22.84;45.34
46366;BME280;72328;49.570;8.722;2023-09-30T00:29:18;100494.97;;;22.76;45.27
46366;BME280;72328;49.570;8.722;2023-09-30T00:33:19;100509.88;;;22.68;45.45
46366;BME280;72328;49.570;8.722;2023-09-30T00:37:20;100508.56;;;22.64;45.59
46366;BME280;72328;49.570;8.722;2023-09-30T00:41:21;100517.28;;;22.56;45.56
46366;BME280;72328;49.570;8.722;2023-09-30T00:45:21;100524.81;;;22.51;45.59
46366;BME280;72328;49.570;8.722;2023-09-30T00:49:23;100528.22;;;22.44;45.58
46366;BME280;72328;49.570;8.722;2023-09-30T00:53:25;100530.97;;;22.42;45.67
46366;BME280;72328;49.570;8.722;2023-09-30T00:57:26;100528.78;;;22.38;45.71
46366;BME280;72328;49.570;8.722;2023-09-30T01:01:28;100521.09;;;22.36;45.82
46366;BME280;72328;49.570;8.722;2023-09-30T01:05:30;100523.38;;;22.31;45.86
46366;BME280;72328;49.570;8.722;2023-09-30T01:09:31;100512.03;;;22.31;45.81
46366;BME280;72328;49.570;8.722;2023-09-30T01:13:35;100528.78;;;22.30;46.00
46366;BME280;72328;49.570;8.722;2023-09-30T01:17:36;100522.69;;;22.29;45.94
46366;BME280;72328;49.570;8.722;2023-09-30T01:21:37;100513.34;;;22.27;46.03
46366;BME280;72328;49.570;8.722;2023-09-30T01:25:37;100508.28;;;22.25;46.16
46366;BME280;72328;49.570;8.722;2023-09-30T01:29:38;100517.09;;;22.24;46.08
46366;BME280;72328;49.570;8.722;2023-09-30T01:33:39;100520.84;;;22.22;45.92
46366;BME280;72328;49.570;8.722;2023-09-30T01:37:39;100522.69;;;22.21;46.12
46366;BME280;72328;49.570;8.722;2023-09-30T01:41:40;100542.03;;;22.20;46.31
46366;BME280;72328;49.570;8.722;2023-09-30T01:45:42;100534.16;;;22.20;46.28
46366;BME280;72328;49.570;8.722;2023-09-30T01:49:42;100527.25;;;22.19;46.28
46366;BME280;72328;49.570;8.722;2023-09-30T01:53:43;100530.34;;;22.15;46.32
46366;BME280;72328;49.570;8.722;2023-09-30T01:57:44;100534.94;;;22.13;46.46
46366;BME280;72328;49.570;8.722;2023-09-30T02:01:44;100539.34;;;22.12;46.57
46366;BME280;72328;49.570;8.722;2023-09-30T02:05:46;100531.34;;;22.14;46.34
46366;BME280;72328;49.570;8.722;2023-09-30T02:09:47;100528.88;;;22.12;46.44
46366;BME280;72328;49.570;8.722;2023-09-30T02:13:47;100533.81;;;22.15;46.52
46366;BME280;72328;49.570;8.722;2023-09-30T02:17:48;100536.59;;;22.14;46.55
46366;BME280;72328;49.570;8.722;2023-09-30T02:21:49;100528.88;;;22.12;46.63
46366;BME280;72328;49.570;8.722;2023-09-30T02:25:49;100530.69;;;22.12;46.75
46366;BME280;72328;49.570;8.722;2023-09-30T02:29:50;100529.19;;;22.09;46.58
46366;BME280;72328;49.570;8.722;2023-09-30T02:33:51;100531.63;;;22.11;46.89
46366;BME280;72328;49.570;8.722;2023-09-30T02:37:52;100542.31;;;22.09;46.76
46366;BME280;72328;49.570;8.722;2023-09-30T02:41:52;100539.69;;;22.09;46.86
46366;BME280;72328;49.570;8.722;2023-09-30T02:45:53;100544.94;;;22.09;46.92
46366;BME280;72328;49.570;8.722;2023-09-30T02:49:56;100555.44;;;22.09;46.85
46366;BME280;72328;49.570;8.722;2023-09-30T02:53:57;100553.09;;;22.06;46.87
46366;BME280;72328;49.570;8.722;2023-09-30T02:57:58;100555.06;;;22.04;46.98
46366;BME280;72328;49.570;8.722;2023-09-30T03:01:59;100555.22;;;22.03;46.93
46366;BME280;72328;49.570;8.722;2023-09-30T03:06:00;100562.41;;;22.01;46.97
46366;BME280;72328;49.570;8.722;2023-09-30T03:10:00;100572.09;;;22.00;47.21
46366;BME280;72328;49.570;8.722;2023-09-30T03:14:05;100574.22;;;21.97;46.98
46366;BME280;72328;49.570;8.722;2023-09-30T03:18:08;100570.75;;;21.96;46.91
46366;BME280;72328;49.570;8.722;2023-09-30T03:22:09;100564.84;;;21.94;47.12
46366;BME280;72328;49.570;8.722;2023-09-30T03:26:11;100555.47;;;21.92;47.12
46366;BME280;72328;49.570;8.722;2023-09-30T03:30:16;100545.44;;;21.87;47.26
46366;BME280;72328;49.570;8.722;2023-09-30T03:34:17;100534.59;;;21.82;47.15
46366;BME280;72328;49.570;8.722;2023-09-30T03:38:17;100526.53;;;21.76;47.09
46366;BME280;72328;49.570;8.722;2023-09-30T03:42:20;100540.09;;;21.71;47.14
46366;BME280;72328;49.570;8.722;2023-09-30T03:46:21;100552.69;;;21.68;47.02
46366;BME280;72328;49.570;8.722;2023-09-30T03:50:22;100568.88;;;21.63;47.08
46366;BME280;72328;49.570;8.722;2023-09-30T03:54:24;100581.59;;;21.58;47.20
46366;BME280;72328;49.570;8.722;2023-09-30T03:58:24;100579.59;;;21.52;46.98
46366;BME280;72328;49.570;8.722;2023-09-30T04:02:25;100581.16;;;21.45;46.96
46366;BME280;72328;49.570;8.722;2023-09-30T04:06:26;100586.06;;;21.40;46.96
46366;BME280;72328;49.570;8.722;2023-09-30T04:10:26;100587.59;;;21.33;46.90
46366;BME280;72328;49.570;8.722;2023-09-30T04:14:27;100587.84;;;21.22;46.90
46366;BME280;72328;49.570;8.722;2023-09-30T04:18:28;100591.66;;;21.10;47.15
46366;BME280;72328;49.570;8.722;2023-09-30T04:22:29;100594.19;;;21.02;47.16
46366;BME280;72328;49.570;8.722;2023-09-30T04:26:31;100587.22;;;20.93;47.12
46366;BME280;72328;49.570;8.722;2023-09-30T04:30:32;100598.41;;;20.86;47.23
46366;BME280;72328;49.570;8.722;2023-09-30T04:34:33;100588.81;;;20.77;47.03
46366;BME280;72328;49.570;8.722;2023-09-30T04:38:33;100585.13;;;20.70;46.99
46366;BME280;72328;49.570;8.722;2023-09-30T04:42:34;100591.09;;;20.62;47.22
46366;BME280;72328;49.570;8.722;2023-09-30T04:46:38;100592.94;;;20.52;47.01
46366;BME280;72328;49.570;8.722;2023-09-30T04:50:46;100605.63;;;20.47;47.26
46366;BME280;72328;49.570;8.722;2023-09-30T04:54:46;100604.41;;;20.42;47.32
46366;BME280;72328;49.570;8.722;2023-09-30T04:58:47;100609.25;;;20.37;47.40
46366;BME280;72328;49.570;8.722;2023-09-30T05:02:48;100587.78;;;20.33;47.38
46366;BME280;72328;49.570;8.722;2023-09-30T05:06:49;100578.88;;;20.26;47.30
46366;BME280;72328;49.570;8.722;2023-09-30T05:10:50;100586.31;;;20.21;47.37
46366;BME280;72328;49.570;8.722;2023-09-30T05:14:51;100583.75;;;20.12;47.59
46366;BME280;72328;49.570;8.722;2023-09-30T05:18:52;100606.00;;;20.06;47.61
46366;BME280;72328;49.570;8.722;2023-09-30T05:22:53;100614.28;;;20.02;47.57
46366;BME280;72328;49.570;8.722;2023-09-30T05:26:53;100621.72;;;19.97;47.78
46366;BME280;72328;49.570;8.722;2023-09-30T05:30:54;100628.75;;;19.96;47.73
46366;BME280;72328;49.570;8.722;2023-09-30T05:34:55;100633.28;;;19.94;47.94
46366;BME280;72328;49.570;8.722;2023-09-30T05:38:55;100641.13;;;19.94;47.87
46366;BME280;72328;49.570;8.722;2023-09-30T05:42:57;100629.72;;;19.95;47.93
46366;BME280;72328;49.570;8.722;2023-09-30T05:47:01;100641.69;;;19.98;48.01
46366;BME280;72328;49.570;8.722;2023-09-30T05:51:01;100642.50;;;19.98;48.09
46366;BME280;72328;49.570;8.722;2023-09-30T05:55:02;100642.34;;;20.00;48.37
46366;BME280;72328;49.570;8.722;2023-09-30T05:59:07;100647.31;;;20.03;48.35
46366;BME280;72328;49.570;8.722;2023-09-30T06:03:08;100650.38;;;20.08;48.47
46366;BME280;72328;49.570;8.722;2023-09-30T06:07:09;100639.47;;;20.12;48.33
46366;BME280;72328;49.570;8.722;2023-09-30T06:11:20;100629.00;;;20.12;48.69
46366;BME280;72328;49.570;8.722;2023-09-30T06:15:25;100646.34;;;20.13;48.58
46366;BME280;72328;49.570;8.722;2023-09-30T06:19:29;100649.94;;;20.22;48.85
46366;BME280;72328;49.570;8.722;2023-09-30T06:23:33;100651.28;;;20.26;48.94
46366;BME280;72328;49.570;8.722;2023-09-30T06:27:33;100652.66;;;20.30;48.97
46366;BME280;72328;49.570;8.722;2023-09-30T06:31:34;100656.50;;;20.35;48.82
46366;BME280;72328;49.570;8.722;2023-09-30T06:35:35;100648.75;;;20.43;49.21
46366;BME280;72328;49.570;8.722;2023-09-30T06:39:39;100650.94;;;20.48;49.21
46366;BME280;72328;49.570;8.722;2023-09-30T06:43:39;100663.47;;;20.54;49.38
46366;BME280;72328;49.570;8.722;2023-09-30T06:47:40;100678.44;;;20.61;49.27
46366;BME280;72328;49.570;8.722;2023-09-30T06:51:42;100678.94;;;20.74;49.58
46366;BME280;72328;49.570;8.722;2023-09-30T06:55:43;100681.09;;;20.88;49.81
46366;BME280;72328;49.570;8.722;2023-09-30T06:59:43;100687.22;;;21.06;50.12
46366;BME280;72328;49.570;8.722;2023-09-30T07:03:44;100682.53;;;21.27;50.22
46366;BME280;72328;49.570;8.722;2023-09-30T07:07:45;100677.56;;;21.51;50.49
46366;BME280;72328;49.570;8.722;2023-09-30T07:11:46;100682.38;;;21.73;50.70
46366;BME280;72328;49.570;8.722;2023-09-30T07:15:47;100678.88;;;22.08;51.17
46366;BME280;72328;49.570;8.722;2023-09-30T07:19:48;100698.56;;;22.55;51.94
46366;BME280;72328;49.570;8.722;2023-09-30T07:23:49;100705.28;;;23.24;53.52
46366;BME280;72328;49.570;8.722;2023-09-30T07:27:49;100725.84;;;24.10;53.73
46366;BME280;72328;49.570;8.722;2023-09-30T07:31:51;100715.75;;;25.08;53.80
46366;BME280;72328;49.570;8.722;2023-09-30T07:35:51;100706.00;;;26.15;53.36
46366;BME280;72328;49.570;8.722;2023-09-30T07:39:52;100705.16;;;27.24;52.75
46366;BME280;72328;49.570;8.722;2023-09-30T07:43:53;100699.47;;;28.04;52.30
46366;BME280;72328;49.570;8.722;2023-09-30T07:47:53;100699.06;;;28.56;51.85
46366;BME280;72328;49.570;8.722;2023-09-30T07:51:55;100699.00;;;29.30;51.23
46366;BME280;72328;49.570;8.722;2023-09-30T07:55:55;100710.38;;;30.43;51.04
46366;BME280;72328;49.570;8.722;2023-09-30T07:59:56;100717.47;;;31.38;49.79
46366;BME280;72328;49.570;8.722;2023-09-30T08:03:57;100716.53;;;32.13;49.23
46366;BME280;72328;49.570;8.722;2023-09-30T08:07:58;100698.72;;;32.74;48.63
46366;BME280;72328;49.570;8.722;2023-09-30T08:11:58;100694.06;;;33.35;48.48
46366;BME280;72328;49.570;8.722;2023-09-30T08:15:59;100699.84;;;34.02;48.07
46366;BME280;72328;49.570;8.722;2023-09-30T08:20:00;100705.66;;;34.80;47.25
46366;BME280;72328;49.570;8.722;2023-09-30T08:24:02;100705.56;;;35.42;46.81
46366;BME280;72328;49.570;8.722;2023-09-30T08:28:03;100701.91;;;36.09;46.85
46366;BME280;72328;49.570;8.722;2023-09-30T08:32:04;100700.47;;;36.57;46.16
46366;BME280;72328;49.570;8.722;2023-09-30T08:36:05;100704.00;;;36.41;46.58
46366;BME280;72328;49.570;8.722;2023-09-30T08:40:10;100708.25;;;36.20;47.54
46366;BME280;72328;49.570;8.722;2023-09-30T08:44:11;100714.19;;;36.05;47.62
46366;BME280;72328;49.570;8.722;2023-09-30T08:48:13;100715.28;;;36.21;48.11
46366;BME280;72328;49.570;8.722;2023-09-30T08:52:13;100718.81;;;36.43;48.37
46366;BME280;72328;49.570;8.722;2023-09-30T08:56:14;100723.44;;;36.64;48.41
46366;BME280;72328;49.570;8.722;2023-09-30T09:00:16;100721.28;;;36.66;48.43
46366;BME280;72328;49.570;8.722;2023-09-30T09:04:18;100725.75;;;36.60;48.65
46366;BME280;72328;49.570;8.722;2023-09-30T09:08:19;100708.91;;;36.27;48.78
46366;BME280;72328;49.570;8.722;2023-09-30T09:12:24;100724.84;;;36.00;48.62
46366;BME280;72328;49.570;8.722;2023-09-30T09:16:24;100727.31;;;35.29;48.81
46366;BME280;72328;49.570;8.722;2023-09-30T09:20:26;100722.19;;;34.88;48.43
46366;BME280;72328;49.570;8.722;2023-09-30T09:24:37;100708.31;;;34.68;48.38
46366;BME280;72328;49.570;8.722;2023-09-30T09:28:42;100713.34;;;34.65;47.17
46366;BME280;72328;49.570;8.722;2023-09-30T09:36:59;100718.94;;;34.86;45.29
46366;BME280;72328;49.570;8.722;2023-09-30T09:41:00;100714.91;;;35.40;43.62
46366;BME280;72328;49.570;8.722;2023-09-30T09:45:04;100711.34;;;35.34;43.04
46366;BME280;72328;49.570;8.722;2023-09-30T09:49:05;100705.06;;;34.89;43.62
46366;BME280;72328;49.570;8.722;2023-09-30T09:53:06;100713.13;;;34.66;43.82
46366;BME280;72328;49.570;8.722;2023-09-30T09:57:09;100718.03;;;34.58;44.17
46366;BME280;72328;49.570;8.722;2023-09-30T10:01:10;100719.31;;;34.55;43.96
46366;BME280;72328;49.570;8.722;2023-09-30T10:05:11;100714.28;;;34.59;44.06
46366;BME280;72328;49.570;8.722;2023-09-30T10:09:12;100715.19;;;34.64;43.71
46366;BME280;72328;49.570;8.722;2023-09-30T10:13:56;100715.09;;;34.82;43.34
46366;BME280;72328;49.570;8.722;2023-09-30T10:26:17;100690.00;;;36.38;41.00
46366;BME280;72328;49.570;8.722;2023-09-30T10:30:20;100687.78;;;35.81;41.20
46366;BME280;72328;49.570;8.722;2023-09-30T10:34:23;100687.53;;;35.38;41.04
46366;BME280;72328;49.570;8.722;2023-09-30T10:42:47;100676.03;;;34.98;41.26
46366;BME280;72328;49.570;8.722;2023-09-30T10:46:50;100661.88;;;34.74;42.04
46366;BME280;72328;49.570;8.722;2023-09-30T10:50:56;100662.44;;;34.37;41.59
46366;BME280;72328;49.570;8.722;2023-09-30T10:55:03;100660.66;;;33.96;41.07
46366;BME280;72328;49.570;8.722;2023-09-30T10:59:05;100655.97;;;33.69;41.17
46366;BME280;72328;49.570;8.722;2023-09-30T11:03:05;100659.88;;;33.55;40.86
46366;BME280;72328;49.570;8.722;2023-09-30T11:07:06;100666.53;;;33.64;40.95
46366;BME280;72328;49.570;8.722;2023-09-30T11:11:07;100672.47;;;33.77;40.08
46366;BME280;72328;49.570;8.722;2023-09-30T11:15:08;100668.19;;;33.76;40.13
46366;BME280;72328;49.570;8.722;2023-09-30T11:19:11;100670.56;;;33.55;39.77
46366;BME280;72328;49.570;8.722;2023-09-30T11:23:11;100675.06;;;33.25;39.71
46366;BME280;72328;49.570;8.722;2023-09-30T11:27:13;100665.44;;;32.94;39.96
46366;BME280;72328;49.570;8.722;2023-09-30T11:31:14;100670.75;;;32.58;40.25
46366;BME280;72328;49.570;8.722;2023-09-30T11:35:23;100665.72;;;32.32;40.10
46366;BME280;72328;49.570;8.722;2023-09-30T11:39:24;100677.09;;;31.97;40.02
46366;BME280;72328;49.570;8.722;2023-09-30T11:43:25;100676.44;;;31.77;40.43
46366;BME280;72328;49.570;8.722;2023-09-30T11:47:29;100679.56;;;31.67;40.65
46366;BME280;72328;49.570;8.722;2023-09-30T11:51:42;100679.44;;;31.56;40.90
46366;BME280;72328;49.570;8.722;2023-09-30T11:55:46;100667.66;;;31.39;40.21
46366;BME280;72328;49.570;8.722;2023-09-30T11:59:47;100670.84;;;31.23;40.36
46366;BME280;72328;49.570;8.722;2023-09-30T12:03:48;100677.28;;;31.02;39.83
46366;BME280;72328;49.570;8.722;2023-09-30T12:07:49;100668.34;;;30.90;39.73
46366;BME280;72328;49.570;8.722;2023-09-30T12:11:50;100662.66;;;30.67;39.63
46366;BME280;72328;49.570;8.722;2023-09-30T12:15:50;100673.97;;;30.43;39.98
46366;BME280;72328;49.570;8.722;2023-09-30T12:19:53;100664.19;;;30.24;39.60
46366;BME280;72328;49.570;8.722;2023-09-30T12:23:54;100661.72;;;30.10;39.77
46366;BME280;72328;49.570;8.722;2023-09-30T12:27:54;100653.16;;;29.88;39.47
46366;BME280;72328;49.570;8.722;2023-09-30T12:31:56;100646.00;;;29.69;39.55
46366;BME280;72328;49.570;8.722;2023-09-30T12:35:56;100645.19;;;29.56;39.25
46366;BME280;72328;49.570;8.722;2023-09-30T12:40:00;100633.47;;;29.44;39.85
46366;BME280;72328;49.570;8.722;2023-09-30T12:44:00;100637.97;;;29.37;39.77
46366;BME280;72328;49.570;8.722;2023-09-30T12:48:01;100626.31;;;29.31;39.70
46366;BME280;72328;49.570;8.722;2023-09-30T12:52:02;100627.53;;;29.29;39.48
46366;BME280;72328;49.570;8.722;2023-09-30T12:56:03;100616.69;;;29.24;39.88
46366;BME280;72328;49.570;8.722;2023-09-30T13:00:04;100626.91;;;29.20;39.52
46366;BME280;72328;49.570;8.722;2023-09-30T13:04:09;100616.88;;;29.09;39.78
46366;BME280;72328;49.570;8.722;2023-09-30T13:08:10;100618.72;;;29.02;39.80
46366;BME280;72328;49.570;8.722;2023-09-30T13:12:11;100621.75;;;28.99;39.69
46366;BME280;72328;49.570;8.722;2023-09-30T13:16:12;100632.78;;;28.96;39.68
46366;BME280;72328;49.570;8.722;2023-09-30T13:20:12;100637.22;;;28.96;39.87
46366;BME280;72328;49.570;8.722;2023-09-30T13:24:13;100639.06;;;28.95;40.08
46366;BME280;72328;49.570;8.722;2023-09-30T13:28:14;100618.66;;;28.96;39.91
46366;BME280;72328;49.570;8.722;2023-09-30T13:32:15;100614.22;;;28.96;39.61
46366;BME280;72328;49.570;8.722;2023-09-30T13:36:15;100617.66;;;28.97;39.87
46366;BME280;72328;49.570;8.722;2023-09-30T13:40:16;100600.53;;;28.99;39.78
46366;BME280;72328;49.570;8.722;2023-09-30T13:44:17;100599.53;;;29.00;39.57
46366;BME280;72328;49.570;8.722;2023-09-30T13:48:18;100602.13;;;28.94;39.66
46366;BME280;72328;49.570;8.722;2023-09-30T13:52:19;100602.50;;;28.91;39.44
46366;BME280;72328;49.570;8.722;2023-09-30T13:56:20;100588.63;;;28.82;39.40
46366;BME280;72328;49.570;8.722;2023-09-30T14:00:20;100592.25;;;28.75;39.63
46366;BME280;72328;49.570;8.722;2023-09-30T14:04:21;100580.41;;;28.71;39.09
46366;BME280;72328;49.570;8.722;2023-09-30T14:08:22;100588.97;;;28.66;39.48
46366;BME280;72328;49.570;8.722;2023-09-30T14:12:23;100589.78;;;28.60;39.11
46366;BME280;72328;49.570;8.722;2023-09-30T14:16:23;100589.34;;;28.63;39.61
46366;BME280;72328;49.570;8.722;2023-09-30T14:20:24;100583.06;;;28.64;39.55
46366;BME280;72328;49.570;8.722;2023-09-30T14:24:25;100578.97;;;28.68;40.36
46366;BME280;72328;49.570;8.722;2023-09-30T14:28:26;100578.81;;;28.76;39.93
46366;BME280;72328;49.570;8.722;2023-09-30T14:32:27;100578.63;;;28.84;40.02
46366;BME280;72328;49.570;8.722;2023-09-30T14:36:27;100563.56;;;28.91;40.07
46366;BME280;72328;49.570;8.722;2023-09-30T14:40:28;100564.22;;;29.00;40.13
46366;BME280;72328;49.570;8.722;2023-09-30T14:44:29;100557.72;;;29.09;39.73
46366;BME280;72328;49.570;8.722;2023-09-30T14:48:30;100553.63;;;29.06;39.57
46366;BME280;72328;49.570;8.722;2023-09-30T14:52:30;100559.09;;;28.98;39.63
46366;BME280;72328;49.570;8.722;2023-09-30T14:56:31;100545.38;;;28.88;39.40
46366;BME280;72328;49.570;8.722;2023-09-30T15:00:32;100555.34;;;28.80;39.05
46366;BME280;72328;49.570;8.722;2023-09-30T15:04:32;100553.69;;;28.72;39.32
46366;BME280;72328;49.570;8.722;2023-09-30T15:08:34;100552.66;;;28.60;38.84
46366;BME280;72328;49.570;8.722;2023-09-30T15:12:34;100546.06;;;28.50;38.67
46366;BME280;72328;49.570;8.722;2023-09-30T15:16:35;100547.66;;;28.38;38.59
46366;BME280;72328;49.570;8.722;2023-09-30T15:20:39;100542.66;;;28.22;38.92
46366;BME280;72328;49.570;8.722;2023-09-30T15:24:44;100546.41;;;28.00;38.58
46366;BME280;72328;49.570;8.722;2023-09-30T15:28:44;100546.91;;;27.82;38.43
46366;BME280;72328;49.570;8.722;2023-09-30T15:32:45;100542.06;;;27.65;38.59
46366;BME280;72328;49.570;8.722;2023-09-30T15:36:46;100540.31;;;27.44;38.47
46366;BME280;72328;49.570;8.722;2023-09-30T15:40:57;100543.41;;;27.27;38.69
46366;BME280;72328;49.570;8.722;2023-09-30T15:45:04;100546.19;;;27.04;38.42
46366;BME280;72328;49.570;8.722;2023-09-30T15:49:04;100544.56;;;26.82;38.48
46366;BME280;72328;49.570;8.722;2023-09-30T15:53:05;100543.25;;;26.57;38.70
46366;BME280;72328;49.570;8.722;2023-09-30T15:57:06;100546.00;;;26.35;38.49
46366;BME280;72328;49.570;8.722;2023-09-30T16:01:11;100550.56;;;26.12;38.57
46366;BME280;72328;49.570;8.722;2023-09-30T16:05:13;100544.69;;;25.87;38.62
46366;BME280;72328;49.570;8.722;2023-09-30T16:09:13;100553.34;;;25.67;38.74
46366;BME280;72328;49.570;8.722;2023-09-30T16:13:14;100564.03;;;25.51;39.01
46366;BME280;72328;49.570;8.722;2023-09-30T16:17:15;100563.34;;;25.34;39.14
46366;BME280;72328;49.570;8.722;2023-09-30T16:21:15;100569.38;;;25.20;39.09
46366;BME280;72328;49.570;8.722;2023-09-30T16:25:16;100560.22;;;25.08;39.25
46366;BME280;72328;49.570;8.722;2023-09-30T16:29:17;100563.13;;;24.91;38.98
46366;BME280;72328;49.570;8.722;2023-09-30T16:33:18;100563.56;;;24.72;39.21
46366;BME280;72328;49.570;8.722;2023-09-30T16:37:25;100554.75;;;24.49;39.19
46366;BME280;72328;49.570;8.722;2023-09-30T16:41:26;100562.56;;;24.34;39.25
46366;BME280;72328;49.570;8.722;2023-09-30T16:45:26;100571.66;;;24.24;39.22
46366;BME280;72328;49.570;8.722;2023-09-30T16:49:27;100562.66;;;24.10;39.28
46366;BME280;72328;49.570;8.722;2023-09-30T16:53:28;100561.34;;;23.98;39.33
46366;BME280;72328;49.570;8.722;2023-09-30T16:57:29;100563.81;;;23.84;39.38
46366;BME280;72328;49.570;8.722;2023-09-30T17:01:29;100558.75;;;23.66;39.37
46366;BME280;72328;49.570;8.722;2023-09-30T17:05:30;100558.09;;;23.56;39.63
46366;BME280;72328;49.570;8.722;2023-09-30T17:09:32;100552.53;;;23.43;39.56
46366;BME280;72328;49.570;8.722;2023-09-30T17:13:32;100556.28;;;23.33;39.55
46366;BME280;72328;49.570;8.722;2023-09-30T17:17:33;100555.81;;;23.21;39.68
46366;BME280;72328;49.570;8.722;2023-09-30T17:21:34;100558.72;;;23.10;39.53
46366;BME280;72328;49.570;8.722;2023-09-30T17:25:35;100558.72;;;23.02;39.72
46366;BME280;72328;49.570;8.722;2023-09-30T17:29:35;100565.91;;;22.92;39.57
46366;BME280;72328;49.570;8.722;2023-09-30T17:33:37;100573.13;;;22.82;39.68
46366;BME280;72328;49.570;8.722;2023-09-30T17:37:39;100575.09;;;22.72;39.84
46366;BME280;72328;49.570;8.722;2023-09-30T17:41:39;100582.09;;;22.64;39.59
46366;BME280;72328;49.570;8.722;2023-09-30T17:45:40;100583.34;;;22.52;39.75
46366;BME280;72328;49.570;8.722;2023-09-30T17:49:40;100591.34;;;22.42;40.02
46366;BME280;72328;49.570;8.722;2023-09-30T17:53:42;100592.59;;;22.30;39.85
46366;BME280;72328;49.570;8.722;2023-09-30T17:57:42;100588.75;;;22.17;39.98
46366;BME280;72328;49.570;8.722;2023-09-30T18:01:43;100590.97;;;22.04;40.06
46366;BME280;72328;49.570;8.722;2023-09-30T18:05:44;100589.72;;;21.90;40.09
46366;BME280;72328;49.570;8.722;2023-09-30T18:09:44;100596.72;;;21.82;40.14
46366;BME280;72328;49.570;8.722;2023-09-30T18:13:45;100599.28;;;21.74;40.30
46366;BME280;72328;49.570;8.722;2023-09-30T18:17:47;100602.94;;;21.63;40.29
46366;BME280;72328;49.570;8.722;2023-09-30T18:21:48;100607.16;;;21.56;40.33
46366;BME280;72328;49.570;8.722;2023-09-30T18:25:48;100612.31;;;21.48;40.34
46366;BME280;72328;49.570;8.722;2023-09-30T18:29:49;100616.81;;;21.38;40.46
46366;BME280;72328;49.570;8.722;2023-09-30T18:33:50;100612.44;;;21.29;40.53
46366;BME280;72328;49.570;8.722;2023-09-30T18:37:50;100613.38;;;21.20;40.41
46366;BME280;72328;49.570;8.722;2023-09-30T18:41:51;100616.03;;;21.11;40.54
46366;BME280;72328;49.570;8.722;2023-09-30T18:45:53;100613.50;;;21.01;40.59
46366;BME280;72328;49.570;8.722;2023-09-30T18:49:53;100613.69;;;20.90;40.76
46366;BME280;72328;49.570;8.722;2023-09-30T18:53:54;100622.38;;;20.81;40.58
46366;BME280;72328;49.570;8.722;2023-09-30T18:57:55;100618.19;;;20.71;40.92
46366;BME280;72328;49.570;8.722;2023-09-30T19:01:56;100632.66;;;20.65;40.76
46366;BME280;72328;49.570;8.722;2023-09-30T19:05:58;100630.09;;;20.56;40.93
46366;BME280;72328;49.570;8.722;2023-09-30T19:09:59;100620.34;;;20.48;40.78
46366;BME280;72328;49.570;8.722;2023-09-30T19:13:59;100613.09;;;20.42;41.04
46366;BME280;72328;49.570;8.722;2023-09-30T19:18:01;100614.63;;;20.35;41.10
46366;BME280;72328;49.570;8.722;2023-09-30T19:22:01;100619.59;;;20.29;41.14
46366;BME280;72328;49.570;8.722;2023-09-30T19:26:02;100615.94;;;20.22;41.22
46366;BME280;72328;49.570;8.722;2023-09-30T19:30:04;100611.69;;;20.11;41.09
46366;BME280;72328;49.570;8.722;2023-09-30T19:34:05;100611.25;;;20.06;41.13
46366;BME280;72328;49.570;8.722;2023-09-30T19:38:06;100607.69;;;19.98;41.16
46366;BME280;72328;49.570;8.722;2023-09-30T19:42:07;100615.97;;;19.93;41.23
46366;BME280;72328;49.570;8.722;2023-09-30T19:46:07;100620.94;;;19.87;41.52
46366;BME280;72328;49.570;8.722;2023-09-30T19:50:08;100608.81;;;19.76;41.56
46366;BME280;72328;49.570;8.722;2023-09-30T19:54:09;100618.19;;;19.69;41.28
46366;BME280;72328;49.570;8.722;2023-09-30T19:58:12;100616.41;;;19.60;41.45
46366;BME280;72328;49.570;8.722;2023-09-30T20:02:14;100615.31;;;19.53;41.36
46366;BME280;72328;49.570;8.722;2023-09-30T20:06:18;100630.56;;;19.48;41.46
46366;BME280;72328;49.570;8.722;2023-09-30T20:10:19;100625.06;;;19.42;41.56
46366;BME280;72328;49.570;8.722;2023-09-30T20:14:20;100626.59;;;19.35;41.44
46366;BME280;72328;49.570;8.722;2023-09-30T20:18:21;100626.47;;;19.27;41.71
46366;BME280;72328;49.570;8.722;2023-09-30T20:22:21;100629.44;;;19.22;41.57
46366;BME280;72328;49.570;8.722;2023-09-30T20:26:22;100636.84;;;19.17;41.87
46366;BME280;72328;49.570;8.722;2023-09-30T20:30:24;100636.56;;;19.11;41.73
46366;BME280;72328;49.570;8.722;2023-09-30T20:34:26;100638.06;;;19.04;41.70
46366;BME280;72328;49.570;8.722;2023-09-30T20:38:28;100634.22;;;18.98;41.84
46366;BME280;72328;49.570;8.722;2023-09-30T20:42:29;100633.91;;;18.92;42.00
46366;BME280;72328;49.570;8.722;2023-09-30T20:46:30;100621.41;;;18.86;41.96
46366;BME280;72328;49.570;8.722;2023-09-30T20:50:30;100629.75;;;18.80;41.88
46366;BME280;72328;49.570;8.722;2023-09-30T20:54:31;100635.34;;;18.75;42.28
46366;BME280;72328;49.570;8.722;2023-09-30T20:58:32;100641.00;;;18.71;41.97
46366;BME280;72328;49.570;8.722;2023-09-30T21:02:33;100631.88;;;18.65;42.24
46366;BME280;72328;49.570;8.722;2023-09-30T21:06:33;100634.22;;;18.59;42.04
46366;BME280;72328;49.570;8.722;2023-09-30T21:10:35;100630.34;;;18.53;41.99
46366;BME280;72328;49.570;8.722;2023-09-30T21:14:36;100629.09;;;18.48;42.21
46366;BME280;72328;49.570;8.722;2023-09-30T21:18:37;100633.03;;;18.42;42.14